CPX953 Details

Departure: Miami International Airport (KMIA)
Arrival: Patrick Air Force Base (KCOF) at N/A
Route: HEDLY2 HEDLY LBV COSTR3
Notes: EMPTY | NON-REVENUE REPOSITIONING LEG | VFR DEPARTURE RCMD IF WX PERMITS


Current Weather Information
KMIA 190553Z 13009KT 10SM FEW020 FEW080 OVC220 28/23 A2986 RMK AO2 SLP111 T02830233 10289 20278 56016
KCOF 190619Z AUTO 09009KT 10SM FEW008 SCT013 25/25 A2986 RMK AO2 DZE04 SLP116 TSNO $